Time;durP1;ratioP1;P1;durP2;ratioP2;P2;SDS_P1;SDS_P2;PMS_P1;PMS_P2;Temp;Humidity;BMP_temperature;BMP_pressure;BME280_temperature;BME280_humidity;BME280_pressure;Samples;Min_cycle;Max_cycle;Signal;HPM_P1;HPM_P2
2023/06/23 00:01:28;;;;;;;30.02;21.52;;;;;;;;;;4939631;28;20031;-65
2023/06/23 00:03:54;;;;;;;34.35;23.38;;;;;;;;;;4922197;28;20825;-65
2023/06/23 00:06:20;;;;;;;40.05;26.70;;;;;;;;;;4938744;28;20158;-64
2023/06/23 00:08:47;;;;;;;44.03;32.05;;;;;;;;;;4938912;28;20043;-64
2023/06/23 00:11:12;;;;;;;47.28;32.65;;;;;;;;;;4939286;28;22308;-65
2023/06/23 00:13:38;;;;;;;48.90;32.63;;;;;;;;;;4940228;28;20082;-63
2023/06/23 00:16:06;;;;;;;53.00;32.85;;;;;;;;;;4939197;28;20046;-64
2023/06/23 00:18:35;;;;;;;52.00;32.60;;;;;;;;;;4938975;28;20043;-63
2023/06/23 00:21:03;;;;;;;53.38;33.78;;;;;;;;;;4918446;28;20048;-64
2023/06/23 00:23:29;;;;;;;53.95;35.78;;;;;;;;;;4939865;28;20129;-64
2023/06/23 00:25:54;;;;;;;50.22;34.05;;;;;;;;;;4938640;28;20046;-64
2023/06/23 00:28:20;;;;;;;53.95;34.47;;;;;;;;;;4938943;28;20043;-63
2023/06/23 00:30:45;;;;;;;53.72;34.03;;;;;;;;;;4935839;28;20205;-63
2023/06/23 00:33:11;;;;;;;49.80;32.40;;;;;;;;;;4937746;28;20052;-63
2023/06/23 00:35:39;;;;;;;49.58;33.72;;;;;;;;;;4936940;28;20047;-63
2023/06/23 00:38:04;;;;;;;57.50;34.58;;;;;;;;;;4937406;28;20042;-63
2023/06/23 00:40:29;;;;;;;60.03;37.05;;;;;;;;;;4934954;28;20034;-65
2023/06/23 00:42:54;;;;;;;63.20;37.65;;;;;;;;;;4935896;28;20059;-63
2023/06/23 00:45:20;;;;;;;61.72;36.45;;;;;;;;;;4935111;28;20058;-65
2023/06/23 00:47:46;;;;;;;62.20;36.65;;;;;;;;;;4936475;28;20074;-65
2023/06/23 00:50:16;;;;;;;58.70;34.97;;;;;;;;;;4928287;28;20046;-64
2023/06/23 00:52:49;;;;;;;59.75;35.08;;;;;;;;;;4934972;28;20102;-64
2023/06/23 00:55:15;;;;;;;56.92;33.67;;;;;;;;;;4935370;28;20799;-64
2023/06/23 00:57:40;;;;;;;51.78;33.47;;;;;;;;;;4931224;28;20039;-64
2023/06/23 01:00:13;;;;;;;51.92;32.10;;;;;;;;;;4936913;28;20042;-64
2023/06/23 01:02:39;;;;;;;49.15;32.17;;;;;;;;;;4935869;28;20488;-64
2023/06/23 01:05:04;;;;;;;48.38;30.73;;;;;;;;;;4936842;28;20039;-65
2023/06/23 01:07:35;;;;;;;49.47;30.67;;;;;;;;;;4935615;28;20561;-63
2023/06/23 01:10:06;;;;;;;49.53;30.53;;;;;;;;;;4939013;28;20035;-64
2023/06/23 01:12:38;;;;;;;50.97;30.00;;;;;;;;;;4917536;28;20039;-64
2023/06/23 01:15:07;;;;;;;47.40;28.40;;;;;;;;;;4938041;28;20407;-64
2023/06/23 01:17:36;;;;;;;44.10;28.08;;;;;;;;;;4935404;28;20042;-64
2023/06/23 01:20:16;;;;;;;44.50;28.23;;;;;;;;;;4937897;28;20042;-65
2023/06/23 01:23:03;;;;;;;41.38;27.73;;;;;;;;;;4937660;28;20655;-64
2023/06/23 01:25:29;;;;;;;38.75;26.90;;;;;;;;;;4937867;28;20514;-64
2023/06/23 01:28:02;;;;;;;39.63;26.38;;;;;;;;;;4939632;28;20042;-64
2023/06/23 01:30:30;;;;;;;38.50;25.08;;;;;;;;;;4942020;28;20052;-64
2023/06/23 01:32:58;;;;;;;35.50;25.30;;;;;;;;;;4920468;28;20121;-64
2023/06/23 01:35:28;;;;;;;36.60;24.52;;;;;;;;;;4925884;28;20066;-64
2023/06/23 01:38:00;;;;;;;37.35;25.35;;;;;;;;;;4924236;28;20047;-63
2023/06/23 01:40:25;;;;;;;;;;;;;;;;;;4937051;28;20039;-64
2023/06/23 01:42:53;;;;;;;42.53;23.10;;;;;;;;;;4923456;28;19925;-63
2023/06/23 01:45:19;;;;;;;36.05;23.65;;;;;;;;;;4942204;28;20294;-62
2023/06/23 01:47:48;;;;;;;37.67;23.27;;;;;;;;;;4919984;28;20090;-64
2023/06/23 01:50:16;;;;;;;40.03;23.17;;;;;;;;;;4940491;28;20085;-65
2023/06/23 01:52:43;;;;;;;43.00;25.45;;;;;;;;;;4924395;28;20058;-64
2023/06/23 01:55:09;;;;;;;40.40;25.75;;;;;;;;;;4941887;28;20113;-62
2023/06/23 01:57:36;;;;;;;44.08;25.80;;;;;;;;;;4932939;28;20116;-64
2023/06/23 02:00:02;;;;;;;42.20;26.27;;;;;;;;;;4940269;28;20035;-64
2023/06/23 02:02:31;;;;;;;48.80;28.02;;;;;;;;;;4940670;28;20450;-64
2023/06/23 02:04:59;;;;;;;44.08;27.35;;;;;;;;;;4920166;28;22623;-64
2023/06/23 02:07:25;;;;;;;52.22;31.67;;;;;;;;;;4938590;28;20194;-65
2023/06/23 02:09:51;;;;;;;50.63;29.90;;;;;;;;;;4938899;28;20034;-64
2023/06/23 02:12:17;;;;;;;51.17;33.38;;;;;;;;;;4920226;28;20035;-64
2023/06/23 02:14:44;;;;;;;52.15;33.22;;;;;;;;;;4939775;28;20119;-64
2023/06/23 02:17:12;;;;;;;58.03;35.38;;;;;;;;;;4937028;28;20026;-65
2023/06/23 02:19:39;;;;;;;55.47;39.20;;;;;;;;;;4937859;28;20082;-64
2023/06/23 02:22:08;;;;;;;56.95;37.40;;;;;;;;;;4941890;28;20063;-64
2023/06/23 02:24:34;;;;;;;54.10;35.88;;;;;;;;;;4940710;28;20086;-64
2023/06/23 02:26:59;;;;;;;56.45;38.35;;;;;;;;;;4938590;28;20500;-64
2023/06/23 02:29:24;;;;;;;59.28;40.67;;;;;;;;;;4938740;28;20042;-64
2023/06/23 02:31:50;;;;;;;58.30;38.97;;;;;;;;;;4919135;28;20097;-63
2023/06/23 02:34:15;;;;;;;58.13;40.22;;;;;;;;;;4938480;28;20439;-64
2023/06/23 02:36:44;;;;;;;56.10;37.95;;;;;;;;;;4941062;28;20081;-69
2023/06/23 02:39:11;;;;;;;50.15;32.70;;;;;;;;;;4938880;28;20039;-68
2023/06/23 02:41:38;;;;;;;44.10;33.55;;;;;;;;;;4935248;28;20045;-68
2023/06/23 02:44:08;;;;;;;46.97;36.75;;;;;;;;;;4940431;28;20043;-70
2023/06/23 02:46:35;;;;;;;49.92;37.30;;;;;;;;;;4939701;28;20053;-69
2023/06/23 02:49:04;;;;;;;45.10;32.67;;;;;;;;;;4936630;28;20075;-69
2023/06/23 02:51:35;;;;;;;48.80;35.50;;;;;;;;;;4940389;28;20184;-70
2023/06/23 02:54:05;;;;;;;45.50;36.00;;;;;;;;;;4915876;28;20047;-68
2023/06/23 02:56:32;;;;;;;41.13;31.35;;;;;;;;;;4939821;28;20476;-68
2023/06/23 02:59:01;;;;;;;42.25;35.25;;;;;;;;;;4931131;28;20042;-66
2023/06/23 03:01:28;;;;;;;47.22;34.67;;;;;;;;;;4935968;28;20042;-69
2023/06/23 03:03:54;;;;;;;41.97;31.38;;;;;;;;;;4939724;28;20042;-68
2023/06/23 03:06:21;;;;;;;41.17;32.55;;;;;;;;;;4940504;28;20141;-69
2023/06/23 03:08:50;;;;;;;42.10;32.15;;;;;;;;;;4932865;28;20094;-69
2023/06/23 03:11:16;;;;;;;37.95;29.55;;;;;;;;;;4939382;28;20111;-69
2023/06/23 03:13:43;;;;;;;31.35;25.98;;;;;;;;;;4919223;28;20042;-68
2023/06/23 03:16:10;;;;;;;34.28;25.27;;;;;;;;;;4921317;28;20237;-67
2023/06/23 03:18:37;;;;;;;33.58;28.35;;;;;;;;;;4921792;28;20046;-68
2023/06/23 03:21:04;;;;;;;30.98;25.80;;;;;;;;;;4940817;28;21012;-69
2023/06/23 03:23:30;;;;;;;32.47;26.63;;;;;;;;;;4933738;28;20027;-68
2023/06/23 03:25:56;;;;;;;34.97;28.48;;;;;;;;;;4939562;28;20158;-69
2023/06/23 03:28:27;;;;;;;35.25;27.20;;;;;;;;;;4940702;28;20039;-69
2023/06/23 03:31:02;;;;;;;33.42;27.30;;;;;;;;;;4936911;28;20145;-69
2023/06/23 03:33:32;;;;;;;31.00;24.67;;;;;;;;;;4939115;28;20047;-70
2023/06/23 03:36:01;;;;;;;34.67;25.50;;;;;;;;;;4914284;28;20097;-70
2023/06/23 03:38:27;;;;;;;28.70;23.00;;;;;;;;;;4939496;28;20039;-68
2023/06/23 03:41:05;;;;;;;31.33;23.85;;;;;;;;;;4938721;28;20114;-67
2023/06/23 03:43:31;;;;;;;33.92;25.77;;;;;;;;;;4925536;28;20038;-67
2023/06/23 03:45:59;;;;;;;34.33;26.23;;;;;;;;;;4938250;28;20047;-66
2023/06/23 03:48:28;;;;;;;30.20;25.25;;;;;;;;;;4939879;28;20925;-67
2023/06/23 03:50:55;;;;;;;31.33;24.77;;;;;;;;;;4939103;28;20034;-67
2023/06/23 03:53:21;;;;;;;26.90;20.90;;;;;;;;;;4939176;28;20058;-67
2023/06/23 03:55:48;;;;;;;31.90;25.23;;;;;;;;;;4939775;28;20042;-67
2023/06/23 03:58:14;;;;;;;29.00;21.90;;;;;;;;;;4937148;28;20042;-68
2023/06/23 04:00:40;;;;;;;30.25;22.98;;;;;;;;;;4940265;28;20175;-68
2023/06/23 04:03:07;;;;;;;39.03;23.77;;;;;;;;;;4917329;28;20049;-67
2023/06/23 04:05:34;;;;;;;29.17;22.52;;;;;;;;;;4938157;28;21161;-68
2023/06/23 04:08:04;;;;;;;28.23;22.30;;;;;;;;;;4937675;28;20093;-68
2023/06/23 04:10:30;;;;;;;27.88;21.00;;;;;;;;;;4937155;28;20076;-66
2023/06/23 04:12:56;;;;;;;25.70;19.58;;;;;;;;;;4920866;28;20042;-69
2023/06/23 04:15:23;;;;;;;21.80;18.58;;;;;;;;;;4938408;28;20035;-69
2023/06/23 04:17:51;;;;;;;21.90;17.80;;;;;;;;;;4940009;28;20042;-68
2023/06/23 04:20:19;;;;;;;28.00;18.73;;;;;;;;;;4917169;28;20034;-67
2023/06/23 04:22:47;;;;;;;22.55;17.70;;;;;;;;;;4938710;28;20039;-68
2023/06/23 04:25:12;;;;;;;23.05;18.65;;;;;;;;;;4939682;28;20039;-68
2023/06/23 04:27:42;;;;;;;24.13;19.10;;;;;;;;;;4939222;28;20125;-67
2023/06/23 04:30:08;;;;;;;22.92;18.23;;;;;;;;;;4937022;28;20050;-68
2023/06/23 04:32:35;;;;;;;22.00;17.77;;;;;;;;;;4936044;28;20050;-68
2023/06/23 04:35:00;;;;;;;22.73;18.35;;;;;;;;;;4937772;28;20522;-68
2023/06/23 04:37:30;;;;;;;21.33;15.90;;;;;;;;;;4938395;28;20086;-68
2023/06/23 04:39:58;;;;;;;18.90;15.68;;;;;;;;;;4938210;28;20031;-68
2023/06/23 04:42:27;;;;;;;18.80;15.15;;;;;;;;;;4934182;28;20513;-65
2023/06/23 04:44:53;;;;;;;20.88;14.82;;;;;;;;;;4919251;28;20815;-67
2023/06/23 04:47:21;;;;;;;18.45;15.35;;;;;;;;;;4937788;28;20089;-67
2023/06/23 04:49:49;;;;;;;18.00;13.18;;;;;;;;;;4935062;28;20539;-68
2023/06/23 04:52:16;;;;;;;20.75;14.25;;;;;;;;;;4937483;28;20034;-68
2023/06/23 04:54:44;;;;;;;20.70;13.68;;;;;;;;;;4937838;28;20041;-70
2023/06/23 04:57:29;;;;;;;18.42;14.52;;;;;;;;;;4939553;28;20125;-69
2023/06/23 04:59:56;;;;;;;17.98;13.25;;;;;;;;;;4940331;28;20045;-70
2023/06/23 05:02:22;;;;;;;18.60;14.48;;;;;;;;;;4938428;28;20031;-69
2023/06/23 05:04:49;;;;;;;21.42;14.80;;;;;;;;;;4924182;28;20043;-71
2023/06/23 05:07:16;;;;;;;17.40;13.95;;;;;;;;;;4940257;28;20035;-70
2023/06/23 05:09:44;;;;;;;18.80;13.95;;;;;;;;;;4943045;28;20357;-70
2023/06/23 05:12:11;;;;;;;19.15;13.70;;;;;;;;;;4940439;28;20116;-69
2023/06/23 05:14:38;;;;;;;16.42;12.57;;;;;;;;;;4940538;28;20038;-68
2023/06/23 05:17:08;;;;;;;17.48;12.73;;;;;;;;;;4921762;28;20035;-69
2023/06/23 05:19:34;;;;;;;15.45;11.60;;;;;;;;;;4942706;28;20035;-69
2023/06/23 05:22:00;;;;;;;18.48;11.45;;;;;;;;;;4925997;28;20042;-69
2023/06/23 05:24:26;;;;;;;14.45;11.20;;;;;;;;;;4942187;28;20442;-69
2023/06/23 05:26:57;;;;;;;13.98;11.13;;;;;;;;;;4940797;28;20736;-69
2023/06/23 05:29:25;;;;;;;16.42;11.48;;;;;;;;;;4926234;28;20058;-68
2023/06/23 05:31:52;;;;;;;22.95;11.85;;;;;;;;;;4920836;28;20035;-70
2023/06/23 05:34:18;;;;;;;20.17;11.18;;;;;;;;;;4941424;28;20112;-70
2023/06/23 05:36:44;;;;;;;19.38;11.27;;;;;;;;;;4940105;28;20365;-70
2023/06/23 05:39:11;;;;;;;26.50;12.10;;;;;;;;;;4920935;28;20031;-69
2023/06/23 05:41:36;;;;;;;29.08;11.88;;;;;;;;;;4940952;28;20048;-69
2023/06/23 05:44:02;;;;;;;13.95;11.18;;;;;;;;;;4940685;28;20034;-69
2023/06/23 05:46:29;;;;;;;36.83;12.05;;;;;;;;;;4941170;28;20055;-69
2023/06/23 05:48:58;;;;;;;36.03;12.93;;;;;;;;;;4940338;28;20167;-69
2023/06/23 05:51:26;;;;;;;20.25;11.73;;;;;;;;;;4924022;28;20040;-69
2023/06/23 05:53:58;;;;;;;25.35;11.68;;;;;;;;;;4940056;28;20042;-68
2023/06/23 05:56:46;;;;;;;20.10;11.20;;;;;;;;;;4940110;28;20035;-68
2023/06/23 05:59:18;;;;;;;20.38;12.48;;;;;;;;;;4940240;28;20752;-69
2023/06/23 06:01:43;;;;;;;;;;;;;;;;;;4941026;28;20038;-70
2023/06/23 06:04:13;;;;;;;16.75;11.60;;;;;;;;;;4939205;28;20064;-70
2023/06/23 06:06:40;;;;;;;31.27;13.55;;;;;;;;;;4939297;28;20053;-69
2023/06/23 06:09:09;;;;;;;32.47;12.43;;;;;;;;;;4940608;28;25105;-69
2023/06/23 06:11:36;;;;;;;24.13;11.50;;;;;;;;;;4922334;28;20637;-68
2023/06/23 06:14:02;;;;;;;15.07;10.77;;;;;;;;;;4918241;28;22325;-68
2023/06/23 06:16:28;;;;;;;21.10;9.68;;;;;;;;;;4938936;28;20043;-68
2023/06/23 06:18:54;;;;;;;22.67;10.52;;;;;;;;;;4940903;28;20066;-68
2023/06/23 06:21:20;;;;;;;15.18;10.30;;;;;;;;;;4939253;28;21032;-68
2023/06/23 06:23:47;;;;;;;12.57;9.48;;;;;;;;;;4941542;28;20519;-68
2023/06/23 06:26:17;;;;;;;12.32;8.75;;;;;;;;;;4938245;28;20100;-68
2023/06/23 06:28:43;;;;;;;10.63;7.93;;;;;;;;;;4937243;28;20125;-68
2023/06/23 06:31:09;;;;;;;10.98;7.07;;;;;;;;;;4932835;28;20042;-67
2023/06/23 06:33:35;;;;;;;14.40;7.32;;;;;;;;;;4937781;28;20587;-66
2023/06/23 06:36:03;;;;;;;9.85;6.90;;;;;;;;;;4938250;28;20326;-67
2023/06/23 06:38:30;;;;;;;11.15;7.45;;;;;;;;;;4938575;28;20116;-67
2023/06/23 06:40:57;;;;;;;11.27;7.95;;;;;;;;;;4917754;28;20042;-65
2023/06/23 06:43:22;;;;;;;12.85;6.60;;;;;;;;;;4937994;28;20103;-67
2023/06/23 06:45:48;;;;;;;7.93;6.30;;;;;;;;;;4938780;28;20078;-65
2023/06/23 06:48:17;;;;;;;8.80;6.55;;;;;;;;;;4918356;28;20558;-66
2023/06/23 06:50:43;;;;;;;8.93;6.95;;;;;;;;;;4920739;28;20492;-66
2023/06/23 06:53:09;;;;;;;11.02;7.20;;;;;;;;;;4937824;28;20050;-67
2023/06/23 06:55:34;;;;;;;12.60;7.30;;;;;;;;;;4938635;28;20280;-67
2023/06/23 06:57:59;;;;;;;10.98;7.10;;;;;;;;;;4939030;28;21979;-67
2023/06/23 07:00:25;;;;;;;27.10;8.93;;;;;;;;;;4933835;28;20039;-67
2023/06/23 07:02:51;;;;;;;23.90;8.75;;;;;;;;;;4937814;28;20034;-67
2023/06/23 07:05:17;;;;;;;20.45;8.55;;;;;;;;;;4937800;28;20123;-67
2023/06/23 07:07:42;;;;;;;20.35;9.15;;;;;;;;;;4938305;28;20747;-66
2023/06/23 07:10:07;;;;;;;13.90;8.95;;;;;;;;;;4937820;28;20035;-66
2023/06/23 07:12:33;;;;;;;14.68;8.82;;;;;;;;;;4936428;28;20023;-68
2023/06/23 07:14:58;;;;;;;15.52;9.32;;;;;;;;;;4936957;28;20045;-68
2023/06/23 07:17:24;;;;;;;17.13;8.75;;;;;;;;;;4937224;28;20207;-68
2023/06/23 07:19:49;;;;;;;21.67;8.95;;;;;;;;;;4937393;28;20421;-68
2023/06/23 07:22:15;;;;;;;11.88;7.88;;;;;;;;;;4938272;28;20035;-68
2023/06/23 07:24:40;;;;;;;9.82;7.15;;;;;;;;;;4937383;28;20093;-66
2023/06/23 07:27:08;;;;;;;11.27;8.00;;;;;;;;;;4937139;28;20031;-67
2023/06/23 07:29:33;;;;;;;10.68;7.25;;;;;;;;;;4937178;28;20038;-68
2023/06/23 07:32:00;;;;;;;12.48;8.18;;;;;;;;;;4936947;28;20042;-69
2023/06/23 07:34:25;;;;;;;9.55;7.45;;;;;;;;;;4913870;28;20073;-67
2023/06/23 07:36:50;;;;;;;11.18;7.10;;;;;;;;;;4937399;28;20042;-67
2023/06/23 07:39:15;;;;;;;10.52;8.23;;;;;;;;;;4914710;28;20049;-67
2023/06/23 07:41:41;;;;;;;11.07;9.10;;;;;;;;;;4936209;28;20036;-68
2023/06/23 07:44:08;;;;;;;11.35;8.82;;;;;;;;;;4936214;28;20054;-69
2023/06/23 07:46:34;;;;;;;9.35;7.90;;;;;;;;;;4935173;28;20074;-69
2023/06/23 07:48:59;;;;;;;13.57;8.27;;;;;;;;;;4915509;28;20073;-68
2023/06/23 07:51:27;;;;;;;9.50;8.00;;;;;;;;;;4935209;28;20190;-68
2023/06/23 07:53:52;;;;;;;16.90;8.57;;;;;;;;;;4935928;28;20064;-67
2023/06/23 07:56:17;;;;;;;12.75;8.95;;;;;;;;;;4934172;28;20383;-66
2023/06/23 07:58:43;;;;;;;18.02;8.27;;;;;;;;;;4935112;28;20038;-68
2023/06/23 08:01:12;;;;;;;11.50;8.10;;;;;;;;;;4912054;28;20034;-68
2023/06/23 08:03:37;;;;;;;8.70;7.57;;;;;;;;;;4933376;28;22884;-67
2023/06/23 08:06:03;;;;;;;11.90;8.00;;;;;;;;;;4933907;28;20079;-67
2023/06/23 08:08:32;;;;;;;14.18;8.40;;;;;;;;;;4937145;28;20070;-65
2023/06/23 08:10:58;;;;;;;10.90;8.32;;;;;;;;;;4936806;28;20657;-67
2023/06/23 08:13:23;;;;;;;16.67;9.02;;;;;;;;;;4916037;28;20647;-66
2023/06/23 08:15:50;;;;;;;13.70;9.05;;;;;;;;;;4916757;28;20062;-68
2023/06/23 08:18:15;;;;;;;13.93;9.18;;;;;;;;;;4934042;28;20047;-67
2023/06/23 08:20:43;;;;;;;38.05;10.05;;;;;;;;;;4936568;28;20506;-68
2023/06/23 08:23:08;;;;;;;59.33;11.95;;;;;;;;;;4938018;28;22045;-67
2023/06/23 08:25:36;;;;;;;13.75;8.88;;;;;;;;;;4936338;28;20039;-67
2023/06/23 08:28:01;;;;;;;21.35;9.00;;;;;;;;;;4936884;28;20135;-68
2023/06/23 08:30:28;;;;;;;15.45;8.32;;;;;;;;;;4935824;28;20294;-68
2023/06/23 08:32:54;;;;;;;43.22;10.23;;;;;;;;;;4899993;28;20498;-67
2023/06/23 08:35:22;;;;;;;27.67;8.73;;;;;;;;;;4936145;28;20065;-69
2023/06/23 08:37:47;;;;;;;19.52;9.13;;;;;;;;;;4936577;28;20403;-68
2023/06/23 08:40:13;;;;;;;13.98;9.05;;;;;;;;;;4914365;28;20045;-68
2023/06/23 08:42:38;;;;;;;12.93;8.73;;;;;;;;;;4935838;28;20039;-68
2023/06/23 08:45:04;;;;;;;9.73;7.70;;;;;;;;;;4935185;28;20886;-68
2023/06/23 08:47:30;;;;;;;13.15;8.43;;;;;;;;;;4936598;28;20049;-68
2023/06/23 08:49:56;;;;;;;12.77;8.63;;;;;;;;;;4934498;28;20190;-68
2023/06/23 08:52:21;;;;;;;12.20;8.45;;;;;;;;;;4935803;28;20050;-68
2023/06/23 08:54:47;;;;;;;22.65;8.98;;;;;;;;;;4936932;28;20027;-67
2023/06/23 08:57:12;;;;;;;12.10;7.70;;;;;;;;;;4937047;28;20043;-69
2023/06/23 08:59:40;;;;;;;13.05;9.07;;;;;;;;;;4919369;28;20035;-68
2023/06/23 09:02:05;;;;;;;15.02;8.57;;;;;;;;;;4916882;28;20256;-67
2023/06/23 09:04:31;;;;;;;9.40;7.90;;;;;;;;;;4936313;28;20039;-67
2023/06/23 09:06:56;;;;;;;11.93;8.10;;;;;;;;;;4917423;28;20035;-68
2023/06/23 09:09:21;;;;;;;11.25;8.05;;;;;;;;;;4916927;28;20035;-69
2023/06/23 09:11:47;;;;;;;12.85;8.13;;;;;;;;;;4937970;28;20039;-68
2023/06/23 09:14:13;;;;;;;11.82;7.80;;;;;;;;;;4937011;28;20050;-67
2023/06/23 09:16:39;;;;;;;11.88;8.13;;;;;;;;;;4936267;28;20035;-68
2023/06/23 09:19:05;;;;;;;13.68;8.25;;;;;;;;;;4938292;28;20131;-68
2023/06/23 09:21:31;;;;;;;9.52;7.57;;;;;;;;;;4916809;28;20062;-68
2023/06/23 09:24:03;;;;;;;9.88;6.90;;;;;;;;;;4938982;28;20579;-69
2023/06/23 09:26:29;;;;;;;11.65;7.68;;;;;;;;;;4935803;28;20035;-69
2023/06/23 09:29:13;;;;;;;10.20;7.28;;;;;;;;;;4937897;28;20082;-67
2023/06/23 09:31:41;;;;;;;10.65;6.88;;;;;;;;;;4939013;28;20039;-67
2023/06/23 09:34:07;;;;;;;9.48;6.68;;;;;;;;;;4936459;28;20114;-68
2023/06/23 09:36:35;;;;;;;7.90;6.45;;;;;;;;;;4938792;28;20105;-68
2023/06/23 09:39:01;;;;;;;10.60;7.40;;;;;;;;;;4937165;28;20043;-69
2023/06/23 09:41:30;;;;;;;11.73;7.57;;;;;;;;;;4920686;28;20129;-68
2023/06/23 09:43:56;;;;;;;13.80;8.05;;;;;;;;;;4938394;28;20783;-68
2023/06/23 09:46:22;;;;;;;10.30;7.18;;;;;;;;;;4936657;28;20867;-67
2023/06/23 09:48:49;;;;;;;10.60;6.88;;;;;;;;;;4937243;28;20102;-67
2023/06/23 09:51:15;;;;;;;9.60;7.15;;;;;;;;;;4942048;28;22248;-66
2023/06/23 09:53:41;;;;;;;14.60;8.60;;;;;;;;;;4942592;28;20054;-67
2023/06/23 09:56:12;;;;;;;10.93;7.07;;;;;;;;;;4941752;28;20043;-68
2023/06/23 09:58:40;;;;;;;13.65;7.90;;;;;;;;;;4940975;28;20126;-67
2023/06/23 10:01:10;;;;;;;12.77;8.50;;;;;;;;;;4919802;28;20844;-68
2023/06/23 10:03:45;;;;;;;11.68;7.63;;;;;;;;;;4924612;28;20045;-66
2023/06/23 10:06:27;;;;;;;10.60;6.93;;;;;;;;;;4920326;28;20225;-68
2023/06/23 10:08:53;;;;;;;11.88;8.13;;;;;;;;;;4919851;28;20042;-67
2023/06/23 10:11:18;;;;;;;12.45;7.13;;;;;;;;;;4942289;28;20038;-65
2023/06/23 10:13:45;;;;;;;10.70;7.60;;;;;;;;;;4939424;28;20094;-67
2023/06/23 10:16:10;;;;;;;12.88;8.13;;;;;;;;;;4917316;28;20039;-66
2023/06/23 10:18:36;;;;;;;12.85;7.95;;;;;;;;;;4938444;28;20057;-67
2023/06/23 10:21:02;;;;;;;13.18;7.82;;;;;;;;;;4935011;28;20170;-67
2023/06/23 10:23:27;;;;;;;25.42;8.60;;;;;;;;;;4938217;28;20509;-67
2023/06/23 10:25:54;;;;;;;17.95;8.13;;;;;;;;;;4937728;28;20389;-67
2023/06/23 10:28:20;;;;;;;12.15;7.38;;;;;;;;;;4938097;28;20039;-66
2023/06/23 10:30:46;;;;;;;10.88;6.82;;;;;;;;;;4938505;28;20109;-67
2023/06/23 10:33:14;;;;;;;8.85;6.55;;;;;;;;;;4937610;28;20039;-67
2023/06/23 10:35:40;;;;;;;12.95;7.75;;;;;;;;;;4938518;28;22051;-68
2023/06/23 10:38:07;;;;;;;10.88;6.88;;;;;;;;;;4938989;28;20041;-66
2023/06/23 10:40:36;;;;;;;9.32;5.95;;;;;;;;;;4919451;28;20042;-67
2023/06/23 10:43:01;;;;;;;10.85;6.68;;;;;;;;;;4920479;28;20062;-67
2023/06/23 10:45:27;;;;;;;10.65;6.60;;;;;;;;;;4938762;28;20122;-67
2023/06/23 10:47:53;;;;;;;10.02;6.53;;;;;;;;;;4920900;28;20046;-69
2023/06/23 10:50:19;;;;;;;9.80;6.60;;;;;;;;;;4938299;28;20392;-67
2023/06/23 10:52:44;;;;;;;10.00;6.68;;;;;;;;;;4937713;28;20342;-65
2023/06/23 10:55:28;;;;;;;9.63;7.22;;;;;;;;;;4938538;28;20031;-67
2023/06/23 10:58:11;;;;;;;10.30;7.50;;;;;;;;;;4938491;28;20101;-66
2023/06/23 11:00:36;;;;;;;10.45;6.57;;;;;;;;;;4937300;28;20030;-66
2023/06/23 11:03:05;;;;;;;11.98;6.80;;;;;;;;;;4937477;28;20665;-67
2023/06/23 11:05:30;;;;;;;7.78;6.10;;;;;;;;;;4921418;28;20054;-69
2023/06/23 11:08:07;;;;;;;8.20;6.10;;;;;;;;;;4933441;28;20035;-67
2023/06/23 11:10:49;;;;;;;9.20;6.80;;;;;;;;;;4938982;28;20559;-67
2023/06/23 11:13:15;;;;;;;18.35;9.13;;;;;;;;;;4938334;28;20066;-67
2023/06/23 11:15:40;;;;;;;9.20;6.40;;;;;;;;;;4938413;28;20042;-65
2023/06/23 11:18:06;;;;;;;12.32;6.80;;;;;;;;;;4937110;28;20035;-66
2023/06/23 11:20:32;;;;;;;9.40;6.57;;;;;;;;;;4938919;28;20391;-67
2023/06/23 11:23:04;;;;;;;10.27;7.00;;;;;;;;;;4933905;28;20146;-66
2023/06/23 11:25:33;;;;;;;10.82;6.30;;;;;;;;;;4930324;28;20039;-73
2023/06/23 11:28:17;;;;;;;10.32;6.15;;;;;;;;;;4937333;28;20039;-65
2023/06/23 11:30:52;;;;;;;9.77;6.40;;;;;;;;;;4939201;28;20045;-68
2023/06/23 11:33:29;;;;;;;8.68;6.18;;;;;;;;;;4937718;28;20085;-68
2023/06/23 11:35:54;;;;;;;7.43;5.55;;;;;;;;;;4935976;28;20070;-67
2023/06/23 11:38:20;;;;;;;8.05;5.95;;;;;;;;;;4915867;28;20031;-67
2023/06/23 11:40:46;;;;;;;8.90;5.63;;;;;;;;;;4920302;28;20684;-69
2023/06/23 11:43:13;;;;;;;14.60;5.95;;;;;;;;;;4919967;28;20039;-68
2023/06/23 11:45:44;;;;;;;10.02;6.00;;;;;;;;;;4936998;28;20046;-67
2023/06/23 11:48:09;;;;;;;7.97;5.57;;;;;;;;;;4936246;28;20500;-67
2023/06/23 11:50:40;;;;;;;10.20;5.63;;;;;;;;;;4938003;28;20050;-66
2023/06/23 11:53:08;;;;;;;10.35;5.70;;;;;;;;;;4931475;28;20499;-66
2023/06/23 11:55:33;;;;;;;29.35;8.45;;;;;;;;;;4915370;28;20031;-68
2023/06/23 11:57:59;;;;;;;13.10;6.22;;;;;;;;;;4937711;28;20495;-67
2023/06/23 12:00:24;;;;;;;8.48;5.13;;;;;;;;;;4937751;28;20422;-69
2023/06/23 12:02:50;;;;;;;7.30;5.70;;;;;;;;;;4936791;28;20038;-67
2023/06/23 12:05:15;;;;;;;11.35;5.55;;;;;;;;;;4937065;28;20103;-66
2023/06/23 12:07:41;;;;;;;20.50;6.28;;;;;;;;;;4937438;28;20031;-65
2023/06/23 12:10:07;;;;;;;7.22;5.57;;;;;;;;;;4920058;28;20065;-68
2023/06/23 12:12:33;;;;;;;9.15;5.88;;;;;;;;;;4936928;28;20352;-68
2023/06/23 12:15:03;;;;;;;7.75;5.70;;;;;;;;;;4916583;28;20040;-68
2023/06/23 12:17:28;;;;;;;36.72;10.10;;;;;;;;;;4936472;28;20109;-65
2023/06/23 12:19:54;;;;;;;8.90;6.00;;;;;;;;;;4937002;28;20174;-68
2023/06/23 12:22:20;;;;;;;8.70;6.10;;;;;;;;;;4931913;28;20069;-67
2023/06/23 12:24:45;;;;;;;9.20;5.97;;;;;;;;;;4933085;28;20875;-69
2023/06/23 12:27:11;;;;;;;9.10;5.68;;;;;;;;;;4915090;28;20163;-67
2023/06/23 12:29:36;;;;;;;11.88;6.40;;;;;;;;;;4916562;28;20089;-66
2023/06/23 12:32:02;;;;;;;10.05;5.70;;;;;;;;;;4936762;28;20039;-65
2023/06/23 12:34:35;;;;;;;8.10;6.18;;;;;;;;;;4936757;28;20204;-65
2023/06/23 12:37:08;;;;;;;7.65;5.38;;;;;;;;;;4937017;28;20042;-65
2023/06/23 12:39:33;;;;;;;7.57;5.22;;;;;;;;;;4915132;28;20031;-66
2023/06/23 12:42:00;;;;;;;9.00;6.03;;;;;;;;;;4915870;28;20575;-66
2023/06/23 12:44:26;;;;;;;8.07;5.85;;;;;;;;;;4936224;28;20208;-67
2023/06/23 12:46:54;;;;;;;9.82;6.03;;;;;;;;;;4917682;28;20585;-66
2023/06/23 12:49:27;;;;;;;8.32;5.82;;;;;;;;;;4937042;28;20046;-64
2023/06/23 12:51:52;;;;;;;9.05;5.72;;;;;;;;;;4937203;28;20039;-67
2023/06/23 12:54:17;;;;;;;8.52;5.53;;;;;;;;;;4936624;28;20886;-68
2023/06/23 12:56:43;;;;;;;9.13;5.65;;;;;;;;;;4936422;28;20043;-66
2023/06/23 12:59:08;;;;;;;8.32;5.75;;;;;;;;;;4936265;28;20671;-65
2023/06/23 13:01:33;;;;;;;9.82;5.50;;;;;;;;;;4936653;28;20039;-66
2023/06/23 13:03:59;;;;;;;8.13;5.45;;;;;;;;;;4937314;28;20408;-65
2023/06/23 13:06:24;;;;;;;8.55;5.80;;;;;;;;;;4934706;28;20051;-66
2023/06/23 13:08:51;;;;;;;9.13;5.88;;;;;;;;;;4935536;28;20077;-66
2023/06/23 13:11:18;;;;;;;10.05;7.38;;;;;;;;;;4936502;28;20077;-66
2023/06/23 13:13:43;;;;;;;8.70;6.90;;;;;;;;;;4936842;28;20388;-66
2023/06/23 13:16:08;;;;;;;9.55;7.00;;;;;;;;;;4915848;28;20118;-65
2023/06/23 13:18:34;;;;;;;9.23;6.72;;;;;;;;;;4935707;28;20288;-67
2023/06/23 13:20:59;;;;;;;8.23;6.30;;;;;;;;;;4936019;28;20133;-67
2023/06/23 13:23:24;;;;;;;11.07;7.22;;;;;;;;;;4936991;28;20404;-65
2023/06/23 13:25:50;;;;;;;9.30;6.47;;;;;;;;;;4940740;28;20046;-67
2023/06/23 13:28:15;;;;;;;8.07;6.53;;;;;;;;;;4940534;28;20118;-68
2023/06/23 13:30:40;;;;;;;7.95;7.00;;;;;;;;;;4940509;28;22316;-67
2023/06/23 13:33:06;;;;;;;9.75;7.53;;;;;;;;;;4915976;28;20078;-66
2023/06/23 13:35:31;;;;;;;8.93;6.60;;;;;;;;;;4916955;28;20031;-66
2023/06/23 13:37:57;;;;;;;10.55;7.38;;;;;;;;;;4939510;28;21927;-65
2023/06/23 13:40:23;;;;;;;8.50;6.93;;;;;;;;;;4939150;28;20062;-65
2023/06/23 13:42:50;;;;;;;10.13;7.75;;;;;;;;;;4919613;28;20035;-66
2023/06/23 13:45:16;;;;;;;8.50;7.60;;;;;;;;;;4938341;28;20039;-67
2023/06/23 13:47:43;;;;;;;9.30;7.38;;;;;;;;;;4938131;28;20039;-66
2023/06/23 13:50:14;;;;;;;10.18;8.13;;;;;;;;;;4938981;28;20043;-67
2023/06/23 13:52:40;;;;;;;11.55;8.43;;;;;;;;;;4939051;28;20043;-67
2023/06/23 13:55:07;;;;;;;10.32;8.00;;;;;;;;;;4918917;28;20079;-67
2023/06/23 13:57:34;;;;;;;11.48;9.02;;;;;;;;;;4934372;28;20042;-67
2023/06/23 14:00:00;;;;;;;10.45;9.35;;;;;;;;;;4922971;28;20183;-66
2023/06/23 14:02:25;;;;;;;11.98;9.30;;;;;;;;;;4940180;28;20035;-68
2023/06/23 14:04:51;;;;;;;11.38;8.73;;;;;;;;;;4917363;28;20268;-67
2023/06/23 14:07:16;;;;;;;11.63;9.60;;;;;;;;;;4940093;28;20035;-67
2023/06/23 14:09:41;;;;;;;10.35;9.25;;;;;;;;;;4939420;28;20047;-68
2023/06/23 14:12:07;;;;;;;11.88;10.00;;;;;;;;;;4939529;28;20035;-65
2023/06/23 14:14:33;;;;;;;10.80;9.65;;;;;;;;;;4922394;28;20896;-67
2023/06/23 14:16:58;;;;;;;9.95;8.95;;;;;;;;;;4917245;28;20035;-68
2023/06/23 14:19:24;;;;;;;11.57;10.00;;;;;;;;;;4937965;28;20065;-67
2023/06/23 14:21:49;;;;;;;10.30;8.82;;;;;;;;;;4938826;28;20039;-65
2023/06/23 14:24:15;;;;;;;8.85;7.90;;;;;;;;;;4938531;28;20066;-68
2023/06/23 14:26:40;;;;;;;9.77;8.48;;;;;;;;;;4904502;28;20094;-67
2023/06/23 14:29:05;;;;;;;10.93;9.82;;;;;;;;;;4917219;28;20155;-67